Dubuque (DBQ/KDBQ)

Map

Destinations

Information

Location
Dubuque, Iowa
Local Time
20:47 / 8:47 pm
GMT Time
01:47 / 1:47 am
Gates
Ramp
No FAA reported delays
METAR KDBQ 270053Z 35006KT 10SM CLR 18/07 A3010 RMK AO2 SLP193 T01780067
TAF KDBQ 262320Z 2700/2724 32004KT P6SM SKC FM271700 22007KT P6SM FEW050